createdAt,value
2023-03-27T00:01:38.233Z,15.73
2023-03-27T00:04:09.259Z,13.90
2023-03-27T00:06:37.737Z,14.60
2023-03-27T00:09:08.457Z,11.95
2023-03-27T00:11:37.101Z,13.27
2023-03-27T00:14:05.788Z,14.77
2023-03-27T00:16:35.718Z,15.52
2023-03-27T00:19:05.610Z,16.65
2023-03-27T00:21:34.393Z,16.08
2023-03-27T00:24:02.839Z,15.93
2023-03-27T00:26:31.636Z,17.60
2023-03-27T00:29:00.224Z,17.73
2023-03-27T00:31:28.498Z,13.68
2023-03-27T00:33:58.688Z,12.73
2023-03-27T00:36:27.349Z,12.63
2023-03-27T00:38:55.857Z,12.52
2023-03-27T00:41:24.681Z,13.13
2023-03-27T00:43:56.430Z,11.40
2023-03-27T00:49:04.457Z,12.25
2023-03-27T00:51:32.886Z,11.38
2023-03-27T00:54:02.027Z,11.05
2023-03-27T00:56:30.760Z,14.00
2023-03-27T00:59:02.678Z,11.75
2023-03-27T01:01:32.119Z,11.65
2023-03-27T01:04:05.839Z,11.38
2023-03-27T01:06:34.509Z,11.48
2023-03-27T01:09:05.054Z,9.65
2023-03-27T01:11:40.362Z,10.55
2023-03-27T01:14:14.763Z,10.70
2023-03-27T01:16:50.390Z,10.05
2023-03-27T01:19:43.080Z,10.80
2023-03-27T01:22:26.255Z,10.82
2023-03-27T01:25:21.690Z,12.15
2023-03-27T01:28:12.678Z,10.05
2023-03-27T01:30:43.208Z,15.82
2023-03-27T01:33:27.021Z,18.52
2023-03-27T01:36:34.897Z,18.13
2023-03-27T01:39:30.781Z,15.88
2023-03-27T01:42:06.429Z,21.88
2023-03-27T01:44:45.306Z,22.30
2023-03-27T01:47:23.380Z,19.63
2023-03-27T01:49:54.816Z,18.40
2023-03-27T01:52:27.130Z,16.83
2023-03-27T01:55:03.428Z,15.10
2023-03-27T01:57:36.852Z,12.50
2023-03-27T02:00:22.653Z,12.30
2023-03-27T02:02:54.475Z,12.13
2023-03-27T02:05:26.478Z,11.75
2023-03-27T02:07:58.964Z,12.52
2023-03-27T02:10:33.380Z,11.02
2023-03-27T02:13:06.561Z,11.15
2023-03-27T02:15:36.346Z,12.23
2023-03-27T02:18:06.264Z,10.48
2023-03-27T02:20:35.103Z,10.43
2023-03-27T02:23:03.674Z,11.43
2023-03-27T02:25:35.183Z,8.82
2023-03-27T02:28:14.230Z,10.20
2023-03-27T02:30:46.362Z,10.73
2023-03-27T02:33:41.704Z,11.25
2023-03-27T02:36:21.341Z,10.60
2023-03-27T02:38:53.968Z,11.02
2023-03-27T02:41:27.934Z,11.25
2023-03-27T02:44:02.200Z,11.80
2023-03-27T02:46:33.171Z,11.90
2023-03-27T02:49:04.618Z,12.45
2023-03-27T02:51:37.123Z,12.07
2023-03-27T02:54:07.897Z,11.27
2023-03-27T02:56:40.392Z,11.10
2023-03-27T02:59:11.033Z,10.77
2023-03-27T03:01:40.652Z,9.85
2023-03-27T03:04:12.502Z,9.55
2023-03-27T03:09:11.207Z,7.43
2023-03-27T03:11:47.088Z,8.13
2023-03-27T03:14:15.870Z,8.07
2023-03-27T03:16:44.159Z,8.10
2023-03-27T03:19:12.860Z,8.68
2023-03-27T03:21:41.150Z,9.60
2023-03-27T03:24:10.522Z,9.40
2023-03-27T03:26:40.140Z,10.23
2023-03-27T03:29:10.836Z,10.02
2023-03-27T03:31:46.779Z,9.18
2023-03-27T03:34:18.510Z,12.85
2023-03-27T03:36:49.767Z,11.50
2023-03-27T03:39:18.913Z,9.60
2023-03-27T03:41:49.085Z,10.63
2023-03-27T03:44:17.570Z,9.97
2023-03-27T03:46:45.903Z,9.65
2023-03-27T03:49:14.375Z,9.30
2023-03-27T03:51:42.578Z,9.48
2023-03-27T03:54:11.570Z,7.97
2023-03-27T03:56:41.852Z,8.25
2023-03-27T03:59:12.914Z,7.68
2023-03-27T04:01:43.619Z,8.03
2023-03-27T04:04:15.001Z,7.05
2023-03-27T04:06:43.325Z,7.40
2023-03-27T04:09:12.513Z,8.00
2023-03-27T04:11:40.740Z,6.70
2023-03-27T04:14:09.146Z,7.70
2023-03-27T04:16:38.849Z,7.55
2023-03-27T04:19:07.393Z,7.93
2023-03-27T04:21:36.559Z,7.93
2023-03-27T04:24:06.216Z,7.53
2023-03-27T04:26:35.511Z,7.43
2023-03-27T04:29:04.155Z,7.18
2023-03-27T04:31:34.754Z,7.13
2023-03-27T04:34:04.834Z,7.28
2023-03-27T04:36:33.171Z,6.65
2023-03-27T04:39:02.449Z,7.10
2023-03-27T04:41:30.873Z,6.38
2023-03-27T04:43:59.784Z,6.90
2023-03-27T04:46:28.005Z,7.07
2023-03-27T04:48:56.684Z,7.35
2023-03-27T04:51:26.719Z,7.28
2023-03-27T04:53:56.607Z,9.25
2023-03-27T04:56:25.107Z,8.13
2023-03-27T04:58:53.666Z,8.68
2023-03-27T05:01:22.909Z,7.68
2023-03-27T05:03:51.736Z,7.65
2023-03-27T05:06:20.224Z,8.25
2023-03-27T05:08:50.285Z,8.93
2023-03-27T05:11:22.250Z,9.70
2023-03-27T05:13:51.075Z,8.27
2023-03-27T05:16:19.401Z,9.32
2023-03-27T05:18:47.937Z,9.50
2023-03-27T05:21:16.863Z,8.35
2023-03-27T05:23:45.301Z,9.35
2023-03-27T05:26:14.939Z,9.68
2023-03-27T05:28:43.438Z,9.93
2023-03-27T05:31:12.784Z,10.45
2023-03-27T05:33:41.339Z,10.52
2023-03-27T05:36:10.443Z,10.23
2023-03-27T05:38:39.773Z,10.55
2023-03-27T05:41:08.562Z,10.05
2023-03-27T05:43:38.916Z,10.40
2023-03-27T05:46:07.782Z,10.68
2023-03-27T05:48:38.703Z,9.93
2023-03-27T05:51:07.363Z,10.57
2023-03-27T05:53:39.342Z,10.68
2023-03-27T05:56:08.582Z,11.30
2023-03-27T05:58:38.934Z,10.85
2023-03-27T06:01:07.974Z,9.07
2023-03-27T06:03:38.567Z,8.77
2023-03-27T06:06:11.543Z,9.00
2023-03-27T06:08:40.319Z,8.57
2023-03-27T06:11:12.526Z,7.57
2023-03-27T06:13:42.790Z,7.55
2023-03-27T06:16:11.829Z,8.80
2023-03-27T06:18:40.776Z,8.75
2023-03-27T06:21:09.044Z,7.97
2023-03-27T06:23:37.721Z,7.40
2023-03-27T06:26:06.467Z,7.88
2023-03-27T06:28:35.055Z,8.52
2023-03-27T06:31:04.739Z,7.75
2023-03-27T06:33:33.249Z,8.40
2023-03-27T06:36:01.510Z,7.53
2023-03-27T06:38:31.653Z,7.82
2023-03-27T06:41:00.731Z,7.68
2023-03-27T06:43:29.287Z,8.75
2023-03-27T06:45:58.309Z,9.00
2023-03-27T06:48:28.834Z,8.60
2023-03-27T06:50:57.183Z,9.68
2023-03-27T06:53:28.156Z,10.70
2023-03-27T06:55:58.626Z,8.25
2023-03-27T06:58:27.587Z,9.77
2023-03-27T07:00:56.159Z,9.70
2023-03-27T07:03:25.881Z,10.32
2023-03-27T07:05:56.055Z,10.90
2023-03-27T07:08:25.578Z,12.07
2023-03-27T07:13:26.233Z,12.52
2023-03-27T07:15:55.075Z,11.85
2023-03-27T07:18:23.772Z,11.55
2023-03-27T07:20:52.285Z,13.77
2023-03-27T07:23:22.475Z,13.82
2023-03-27T07:25:58.800Z,13.95
2023-03-27T07:28:27.751Z,14.50
2023-03-27T07:30:56.379Z,14.45
2023-03-27T07:33:25.487Z,15.43
2023-03-27T07:35:53.808Z,15.02
2023-03-27T07:38:24.048Z,15.13
2023-03-27T07:40:52.282Z,15.80
2023-03-27T07:43:20.787Z,16.48
2023-03-27T07:45:49.808Z,15.88
2023-03-27T07:48:19.097Z,14.38
2023-03-27T07:50:47.927Z,14.38
2023-03-27T07:53:32.300Z,16.50
2023-03-27T07:56:04.022Z,15.00
2023-03-27T07:58:32.731Z,15.75
2023-03-27T08:01:02.484Z,15.05
2023-03-27T08:03:32.259Z,17.25
2023-03-27T08:06:01.781Z,16.02
2023-03-27T08:08:31.058Z,16.27
2023-03-27T08:11:00.142Z,15.57
2023-03-27T08:13:30.474Z,16.33
2023-03-27T08:16:07.089Z,14.95
2023-03-27T08:18:36.591Z,14.73
2023-03-27T08:21:07.200Z,15.85
2023-03-27T08:23:36.300Z,17.55
2023-03-27T08:26:05.629Z,18.08
2023-03-27T08:28:36.749Z,18.88
2023-03-27T08:31:11.477Z,21.08
2023-03-27T08:33:41.989Z,20.42
2023-03-27T08:36:11.613Z,20.67
2023-03-27T08:38:41.438Z,21.00
2023-03-27T08:41:22.412Z,21.25
2023-03-27T08:43:53.395Z,17.95
2023-03-27T08:46:23.883Z,19.35
2023-03-27T08:48:55.402Z,18.20
2023-03-27T08:51:26.957Z,19.20
2023-03-27T08:53:58.405Z,17.75
2023-03-27T08:56:27.519Z,16.73
2023-03-27T08:58:57.529Z,16.38
2023-03-27T09:01:29.677Z,15.50
2023-03-27T09:04:03.005Z,14.45
2023-03-27T09:06:38.353Z,12.45
2023-03-27T09:09:12.366Z,10.18
2023-03-27T09:11:52.502Z,9.88
2023-03-27T09:14:29.313Z,9.32
2023-03-27T09:16:58.144Z,7.85
2023-03-27T09:19:33.075Z,7.88
2023-03-27T09:22:06.630Z,6.15
2023-03-27T09:24:38.020Z,10.98
2023-03-27T09:27:17.811Z,7.13
2023-03-27T09:30:05.603Z,7.03
2023-03-27T09:32:35.107Z,7.60
2023-03-27T09:35:04.774Z,8.10
2023-03-27T09:37:34.510Z,7.63
2023-03-27T09:40:07.542Z,8.43
2023-03-27T09:42:38.876Z,8.38
2023-03-27T09:45:11.609Z,8.63
2023-03-27T09:47:44.356Z,9.35
2023-03-27T09:50:27.879Z,12.80
2023-03-27T09:53:09.396Z,10.38
2023-03-27T09:55:49.762Z,11.65
2023-03-27T09:58:25.327Z,17.27
2023-03-27T10:01:09.818Z,18.60
2023-03-27T10:03:39.321Z,17.10
2023-03-27T10:06:10.391Z,17.00
2023-03-27T10:08:42.117Z,11.23
2023-03-27T10:11:16.665Z,9.13
2023-03-27T10:13:47.602Z,9.80
2023-03-27T10:16:18.814Z,9.75
2023-03-27T10:18:49.198Z,9.75
2023-03-27T10:21:36.130Z,9.95
2023-03-27T10:24:06.784Z,13.32
2023-03-27T10:26:38.225Z,13.95
2023-03-27T10:29:20.407Z,12.60
2023-03-27T10:31:53.704Z,9.60
2023-03-27T10:34:31.020Z,7.65
2023-03-27T10:37:01.583Z,11.20
2023-03-27T10:39:32.128Z,9.43
2023-03-27T10:42:04.553Z,11.65
2023-03-27T10:44:32.806Z,11.52
2023-03-27T10:47:03.452Z,9.30
2023-03-27T10:49:37.644Z,9.23
2023-03-27T10:52:16.569Z,11.13
2023-03-27T10:54:47.593Z,7.13
2023-03-27T10:59:48.865Z,7.85
2023-03-27T11:02:22.136Z,7.18
2023-03-27T11:04:53.906Z,7.32
2023-03-27T11:07:28.204Z,4.60
2023-03-27T11:10:00.293Z,3.97
2023-03-27T11:12:30.488Z,4.93
2023-03-27T11:15:02.157Z,4.60
2023-03-27T11:17:37.440Z,5.47
2023-03-27T11:20:08.637Z,3.83
2023-03-27T11:22:42.600Z,5.30
2023-03-27T11:25:20.004Z,5.30
2023-03-27T11:27:56.025Z,5.78
2023-03-27T11:30:33.724Z,5.18
2023-03-27T11:33:32.348Z,10.63
2023-03-27T11:36:08.650Z,12.82
2023-03-27T11:38:40.519Z,11.18
2023-03-27T11:41:14.662Z,5.97
2023-03-27T11:43:44.461Z,3.70
2023-03-27T11:46:26.233Z,3.17
2023-03-27T11:49:06.671Z,3.60
2023-03-27T11:51:43.332Z,2.90
2023-03-27T11:54:24.534Z,3.22
2023-03-27T11:56:54.710Z,2.95
2023-03-27T11:59:37.486Z,5.37
2023-03-27T12:02:17.849Z,4.90
2023-03-27T12:04:52.348Z,4.25
2023-03-27T12:07:35.769Z,4.85
2023-03-27T12:10:15.294Z,5.07
2023-03-27T12:12:56.571Z,4.25
2023-03-27T12:15:37.054Z,3.95
2023-03-27T12:18:14.543Z,4.63
2023-03-27T12:21:03.873Z,4.15
2023-03-27T12:23:44.534Z,3.88
2023-03-27T12:26:28.497Z,3.35
2023-03-27T12:29:23.023Z,2.85
2023-03-27T12:32:11.721Z,2.90
2023-03-27T12:34:51.288Z,2.15
2023-03-27T12:37:24.816Z,2.50
2023-03-27T12:39:55.042Z,2.63
2023-03-27T12:42:44.090Z,3.22
2023-03-27T12:45:18.294Z,3.30
2023-03-27T12:47:52.317Z,4.40
2023-03-27T12:50:22.502Z,6.13
2023-03-27T12:52:53.380Z,5.37
2023-03-27T12:55:35.318Z,5.43
2023-03-27T12:58:06.020Z,4.75
2023-03-27T13:00:34.461Z,4.85
2023-03-27T13:03:33.091Z,4.80
2023-03-27T13:06:14.463Z,3.38
2023-03-27T13:08:54.455Z,3.45
2023-03-27T13:11:37.418Z,2.85
2023-03-27T13:14:38.477Z,3.05
2023-03-27T13:17:25.847Z,3.47
2023-03-27T13:19:59.959Z,4.20
2023-03-27T13:22:45.871Z,4.68
2023-03-27T13:25:31.704Z,4.90
2023-03-27T13:28:28.503Z,4.65
2023-03-27T13:30:58.330Z,4.25
2023-03-27T13:33:28.204Z,4.22
2023-03-27T13:36:14.507Z,4.15
2023-03-27T13:39:13.850Z,5.80
2023-03-27T13:42:03.818Z,4.55
2023-03-27T13:45:00.354Z,4.07
2023-03-27T13:47:48.636Z,4.18
2023-03-27T13:50:41.899Z,3.70
2023-03-27T13:53:33.350Z,2.92
2023-03-27T13:56:11.110Z,3.22
2023-03-27T13:59:15.085Z,3.75
2023-03-27T14:01:54.095Z,5.07
2023-03-27T14:04:33.363Z,5.93
2023-03-27T14:07:54.129Z,6.05
2023-03-27T14:10:32.522Z,4.40
2023-03-27T14:13:13.436Z,4.45
2023-03-27T14:15:51.233Z,4.15
2023-03-27T14:18:44.147Z,3.60
2023-03-27T14:21:24.536Z,4.28
2023-03-27T14:24:06.371Z,3.53
2023-03-27T14:26:35.881Z,4.03
2023-03-27T14:29:04.184Z,4.97
2023-03-27T14:31:35.649Z,5.13
2023-03-27T14:36:36.019Z,3.50
2023-03-27T14:39:14.235Z,3.20
2023-03-27T14:41:47.278Z,3.17
2023-03-27T14:44:16.113Z,2.88
2023-03-27T14:46:48.179Z,2.90
2023-03-27T14:49:20.767Z,4.25
2023-03-27T14:51:55.457Z,3.60
2023-03-27T14:54:28.885Z,3.58
2023-03-27T14:57:00.144Z,3.20
2023-03-27T14:59:31.639Z,3.38
2023-03-27T15:02:02.135Z,3.78
2023-03-27T15:04:32.732Z,3.10
2023-03-27T15:07:14.442Z,4.53
2023-03-27T15:09:43.491Z,2.83
2023-03-27T15:12:12.802Z,2.33
2023-03-27T15:14:41.669Z,3.05
2023-03-27T15:17:15.015Z,2.92
2023-03-27T15:19:48.554Z,3.35
2023-03-27T15:22:21.085Z,2.53
2023-03-27T15:24:52.595Z,10.40
2023-03-27T15:27:24.549Z,12.30
2023-03-27T15:29:57.972Z,4.40
2023-03-27T15:32:30.325Z,4.28
2023-03-27T15:35:03.556Z,6.20
2023-03-27T15:37:33.018Z,4.50
2023-03-27T15:40:09.322Z,3.65
2023-03-27T15:42:48.465Z,3.30
2023-03-27T15:45:17.919Z,3.20
2023-03-27T15:48:00.183Z,2.55
2023-03-27T15:50:30.462Z,2.40
2023-03-27T15:53:01.565Z,2.67
2023-03-27T15:55:35.082Z,2.90
2023-03-27T15:58:16.326Z,2.80
2023-03-27T16:00:48.803Z,3.13
2023-03-27T16:03:21.233Z,3.17
2023-03-27T16:05:51.768Z,3.10
2023-03-27T16:08:28.566Z,4.63
2023-03-27T16:10:58.525Z,3.17
2023-03-27T16:13:30.082Z,3.65
2023-03-27T16:18:32.102Z,3.42
2023-03-27T16:21:10.150Z,3.40
2023-03-27T16:23:39.088Z,3.88
2023-03-27T16:26:08.687Z,4.32
2023-03-27T16:28:37.566Z,4.22
2023-03-27T16:31:13.211Z,5.07
2023-03-27T16:33:45.290Z,4.72
2023-03-27T16:36:17.013Z,3.20
2023-03-27T16:38:46.093Z,4.82
2023-03-27T16:41:15.249Z,4.82
2023-03-27T16:43:44.726Z,3.92
2023-03-27T16:46:24.331Z,3.03
2023-03-27T16:48:53.972Z,2.67
2023-03-27T16:51:25.763Z,3.03
2023-03-27T16:53:54.584Z,3.05
2023-03-27T16:56:23.325Z,2.80
2023-03-27T16:58:52.010Z,2.47
2023-03-27T17:01:20.517Z,2.65
2023-03-27T17:03:49.147Z,2.30
2023-03-27T17:06:19.239Z,3.13
2023-03-27T17:08:52.575Z,9.33
2023-03-27T17:11:21.097Z,5.68
2023-03-27T17:13:50.323Z,4.68
2023-03-27T17:16:18.629Z,4.90
2023-03-27T17:18:47.396Z,5.00
2023-03-27T17:21:15.800Z,9.10
2023-03-27T17:23:48.374Z,11.85
2023-03-27T17:26:24.749Z,10.75
2023-03-27T17:28:53.506Z,8.70
2023-03-27T17:31:22.116Z,9.30
2023-03-27T17:33:51.040Z,6.90
2023-03-27T17:36:33.106Z,7.07
2023-03-27T17:39:09.779Z,6.60
2023-03-27T17:41:39.841Z,6.00
2023-03-27T17:44:08.854Z,8.80
2023-03-27T17:46:37.424Z,6.35
2023-03-27T17:49:06.438Z,7.70
2023-03-27T17:51:35.598Z,5.45
2023-03-27T17:54:04.533Z,5.15
2023-03-27T17:56:32.895Z,6.78
2023-03-27T17:59:03.020Z,7.55
2023-03-27T18:01:31.653Z,9.98
2023-03-27T18:04:00.681Z,5.82
2023-03-27T18:06:29.266Z,7.45
2023-03-27T18:08:58.261Z,8.55
2023-03-27T18:11:26.715Z,7.40
2023-03-27T18:13:55.278Z,5.45
2023-03-27T18:16:25.137Z,6.07
2023-03-27T18:18:55.691Z,4.93
2023-03-27T18:21:24.218Z,6.45
2023-03-27T18:23:53.936Z,6.28
2023-03-27T18:26:22.415Z,5.35
2023-03-27T18:28:52.448Z,4.95
2023-03-27T18:31:21.023Z,6.32
2023-03-27T18:33:50.930Z,4.55
2023-03-27T18:36:19.460Z,5.00
2023-03-27T18:38:49.733Z,5.28
2023-03-27T18:41:18.388Z,5.57
2023-03-27T18:43:47.232Z,7.13
2023-03-27T18:46:17.317Z,8.93
2023-03-27T18:48:48.698Z,8.02
2023-03-27T18:51:19.403Z,9.98
2023-03-27T18:53:48.061Z,11.35
2023-03-27T18:56:16.831Z,13.05
2023-03-27T18:58:45.774Z,9.95
2023-03-27T19:01:14.113Z,9.50
2023-03-27T19:03:43.542Z,8.82
2023-03-27T19:06:12.994Z,10.32
2023-03-27T19:08:45.844Z,8.50
2023-03-27T19:11:14.382Z,8.93
2023-03-27T19:13:42.879Z,8.60
2023-03-27T19:16:14.535Z,10.60
2023-03-27T19:18:44.012Z,12.02
2023-03-27T19:21:12.371Z,12.38
2023-03-27T19:23:42.545Z,14.30
2023-03-27T19:26:12.529Z,11.23
2023-03-27T19:28:41.486Z,19.40
2023-03-27T19:31:11.198Z,12.07
2023-03-27T19:33:40.850Z,14.73
2023-03-27T19:36:10.232Z,14.27
2023-03-27T19:38:39.745Z,13.25
2023-03-27T19:41:12.926Z,13.32
2023-03-27T19:43:41.527Z,12.85
2023-03-27T19:48:42.503Z,9.85
2023-03-27T19:51:10.905Z,11.30
2023-03-27T19:53:39.443Z,10.68
2023-03-27T19:56:07.921Z,12.93
2023-03-27T19:58:37.906Z,14.15
2023-03-27T20:01:07.250Z,10.77
2023-03-27T20:03:38.824Z,11.75
2023-03-27T20:06:13.152Z,11.70
2023-03-27T20:08:43.006Z,10.93
2023-03-27T20:11:11.256Z,10.60
2023-03-27T20:13:55.645Z,11.68
2023-03-27T20:16:26.293Z,11.25
2023-03-27T20:19:04.625Z,12.88
2023-03-27T20:21:34.514Z,12.88
2023-03-27T20:24:03.474Z,12.38
2023-03-27T20:26:39.188Z,12.30
2023-03-27T20:29:10.523Z,11.32
2023-03-27T20:31:39.341Z,10.65
2023-03-27T20:34:08.776Z,12.43
2023-03-27T20:36:39.337Z,11.63
2023-03-27T20:39:09.263Z,11.70
2023-03-27T20:41:39.214Z,14.20
2023-03-27T20:44:15.484Z,13.88
2023-03-27T20:46:47.526Z,13.27
2023-03-27T20:49:37.645Z,13.13
2023-03-27T20:52:10.091Z,16.45
2023-03-27T20:54:38.701Z,18.20
2023-03-27T20:57:07.244Z,17.73
2023-03-27T20:59:37.236Z,15.07
2023-03-27T21:02:05.863Z,13.15
2023-03-27T21:04:34.825Z,9.27
2023-03-27T21:07:03.190Z,11.65
2023-03-27T21:09:32.077Z,10.57
2023-03-27T21:12:01.414Z,9.30
2023-03-27T21:14:30.144Z,10.57
2023-03-27T21:16:59.945Z,10.25
2023-03-27T21:19:28.846Z,9.77
2023-03-27T21:21:57.187Z,8.70
2023-03-27T21:24:25.748Z,9.45
2023-03-27T21:26:54.005Z,9.57
2023-03-27T21:29:22.804Z,7.97
2023-03-27T21:31:51.082Z,7.95
2023-03-27T21:34:21.094Z,7.85
2023-03-27T21:36:49.371Z,8.52
2023-03-27T21:39:18.136Z,10.45
2023-03-27T21:41:46.439Z,9.40
2023-03-27T21:44:15.270Z,10.32
2023-03-27T21:46:43.532Z,9.07
2023-03-27T21:49:12.222Z,11.15
2023-03-27T21:51:41.866Z,10.30
2023-03-27T21:54:10.404Z,10.95
2023-03-27T21:56:38.837Z,10.40
2023-03-27T21:59:07.550Z,10.63
2023-03-27T22:01:35.883Z,10.45
2023-03-27T22:04:04.502Z,10.68
2023-03-27T22:06:32.815Z,10.20
2023-03-27T22:09:02.872Z,10.23
2023-03-27T22:11:31.369Z,9.27
2023-03-27T22:14:00.963Z,8.73
2023-03-27T22:16:29.459Z,9.63
2023-03-27T22:18:58.392Z,11.38
2023-03-27T22:21:28.600Z,11.68
2023-03-27T22:23:58.283Z,10.68
2023-03-27T22:26:30.137Z,10.32
2023-03-27T22:28:59.325Z,9.32
2023-03-27T22:31:29.177Z,8.55
2023-03-27T22:33:57.892Z,8.40
2023-03-27T22:36:26.344Z,7.05
2023-03-27T22:38:55.542Z,6.90
2023-03-27T22:41:23.835Z,7.38
2023-03-27T22:43:54.244Z,8.38
2023-03-27T22:46:24.105Z,7.88
2023-03-27T22:48:56.424Z,7.63
2023-03-27T22:51:25.150Z,8.55
2023-03-27T22:53:54.876Z,8.63
2023-03-27T22:56:23.225Z,8.85
2023-03-27T22:58:53.292Z,8.85
2023-03-27T23:01:21.655Z,9.07
2023-03-27T23:03:50.501Z,8.65
2023-03-27T23:06:20.159Z,8.57
2023-03-27T23:08:49.606Z,8.45
2023-03-27T23:11:18.941Z,7.82
2023-03-27T23:13:48.102Z,8.07
2023-03-27T23:16:17.728Z,8.63
2023-03-27T23:18:46.853Z,7.82
2023-03-27T23:21:16.813Z,7.07
2023-03-27T23:23:45.777Z,7.33
2023-03-27T23:26:14.397Z,8.23
2023-03-27T23:28:43.760Z,9.05
2023-03-27T23:31:13.587Z,8.90
2023-03-27T23:33:45.112Z,8.48
2023-03-27T23:36:15.058Z,7.18
2023-03-27T23:38:44.068Z,8.10
2023-03-27T23:41:14.079Z,7.05
2023-03-27T23:43:42.788Z,7.70
2023-03-27T23:46:11.530Z,7.05
2023-03-27T23:48:42.112Z,6.68
2023-03-27T23:51:13.066Z,6.65
2023-03-27T23:56:10.737Z,7.65
2023-03-27T23:58:39.285Z,7.50
